Onweer radar more information blitzortung!


Regen radar more information rain snow radar


Weerstation Alkmaar Centrum

Weerstation Luyksgestel

Website Noardburgum


U vindt ons ook hier:

Het Weer Aktueel

UK Metoffice

European Weather Network

Weather Underground

AWEKAS

Citizen Weather Observer Program (CWOP)

HAMweather, WeatherForYou, PWS Weather



Het weer levert geen direct gevaar op.    Er zijn geen waarschuwingen afgegeven.

METAR rapporten vliegvelden

   
EHLW - Leeuwarden Rnlaf, Netherlands
Afstand tot: W 17 km
Gewijzigd: 28-01-2020 04:25
Bewolking  
Bewolking  
   Wind: ZW 18.5 km/h
Wind: ZW 18.5 km/h
Temperatuur: 6°C
Voelt als: 3°C
Dauwpunt: 5°C
Vochtigheid: 93%
Barometer: 988 hPa
Bewolking: Bewolking
Zicht: meer dan 10 km
Bewolking: Gedeeltelijk bewolkt 2900 ft,
Gedeeltelijk bewolkt 3300 ft,
Bewolking 3800 ft
EHLW 280325Z AUTO 23010KT 9999 SCT029 SCT033 OVC038 06/05 Q0988 BLU
EHMA - Awg-1 Sea, Netherlands
Afstand tot: N 31 km
Gewijzigd: 28-01-2020 04:25
Grotendeels bewolkt  
Grotendeels bewolkt  
   Wind: WZW 35.2 km/h
Wind: WZW 35.2 km/h
Temperatuur: 6°C
Voelt als: 1°C
Dauwpunt: 5°C
Vochtigheid: 93%
Barometer: 987 hPa
Bewolking: Grotendeels bewolkt
Zicht: meer dan 10 km
Bewolking: Licht bewolkt 900 ft,
Gedeeltelijk bewolkt 1500 ft,
Grotendeels bewolkt 2000 ft
EHMA 280325Z AUTO 25019KT 9999 FEW009 SCT015 BKN020 06/05 Q0987
EHGG - Groningen/Eelde, Netherlands
Afstand tot: OZO 40 km
Gewijzigd: 28-01-2020 04:25
Wat regen mogelijk, Grotendeels bewolkt  
Wat regen mogelijk, Grotendeels bewolkt  
   Wind: ZW 29.6 km/h
Wind: ZW 29.6 km/h
Temperatuur: 6°C
Voelt als: 2°C
Dauwpunt: 5°C
Vochtigheid: 93%
Barometer: 988 hPa
Bewolking: Grotendeels bewolkt
Zicht: meer dan 10 km
Bewolking: Licht bewolkt 1500 ft,
Gedeeltelijk bewolkt 2100 ft,
Grotendeels bewolkt 2600 ft
EHGG 280325Z AUTO 23016KT 9999 -RA FEW015 SCT021 BKN026 06/05 Q0988
EHVL - Vlieland Island, Netherlands
Afstand tot: W 72 km
Gewijzigd: 28-01-2020 04:25
Bewolking  
Bewolking  
   Wind: WZW 37 km/h
Wind: WZW 37 km/h
Temperatuur: 7°C
Voelt als: 2°C
Dauwpunt: 4°C
Vochtigheid: 81%
Barometer: 987 hPa
Bewolking: Bewolking
Zicht: meer dan 10 km
Bewolking: Bewolking 3000 ft
EHVL 280325Z AUTO 25020KT 9999 OVC030 07/04 Q0987 BLU
EHMG - L9-Ff-1 Sea, Netherlands
Afstand tot: WNW 81 km
Gewijzigd: 28-01-2020 04:25
Grotendeels bewolkt  
Grotendeels bewolkt  
   Wind: WZW 37 km/h
Wind: WZW 37 km/h
Temperatuur: 6°C
Voelt als: 1°C
Dauwpunt: 5°C
Vochtigheid: 93%
Barometer: 987 hPa
Bewolking: Grotendeels bewolkt
Zicht: meer dan 10 km
Bewolking: Licht bewolkt 700 ft,
Gedeeltelijk bewolkt 900 ft,
Grotendeels bewolkt 1100 ft
EHMG 280325Z AUTO 25020KT 9999 FEW007 SCT009 BKN011 06/05 Q0987
EHKD - De Kooy (navy), Netherlands
Afstand tot: WZW 89 km
Gewijzigd: 28-01-2020 04:25
Grotendeels bewolkt  
Grotendeels bewolkt  
   Wind: ZW 29.6 km/h
Wind: ZW 29.6 km/h
Temperatuur: 7°C
Voelt als: 3°C
Dauwpunt: 5°C
Vochtigheid: 87%
Barometer: 988 hPa
Bewolking: Grotendeels bewolkt
Zicht: meer dan 10 km
Bewolking: Gedeeltelijk bewolkt 1900 ft,
Grotendeels bewolkt 2400 ft,
Grotendeels bewolkt 2800 ft
EHKD 280325Z AUTO 23016KT 200V260 9999 SCT019 BKN024 BKN028 07/05 Q0988 WHT

Script ontwikkeld door  Saratoga-weather.org Aangepast voor de template door  Weerstation Leuven

Apparatuur in gebruik:

Weerstation
Davis Vantage pro 2

Weerprogramma
Meteobridge

Weercomputer
TP-Link TL-WR703N

Webleverancier
Versio

Davis Vantage pro 2

Meteobridge

TP-Link TL-WR703N

Versio